Terminal Aerodrome Forecast
Issued by NWS

Home | Current Version | Previous Version | Text Only | Print | Product List | Glossary On
Versions: 1 2 3 4 5 6 7 8 9 10 11 12 13 14 15 16 17
000
FTAK31 PANC 231129
TAFADU
TAF
PADU 231129Z 2312/2412 35005KT P6SM BKN025
     FM232100 04007KT P6SM SCT025
     FM240600 10012KT P6SM BKN040=

USA.gov is the U.S. government's official web portal to all federal, state and local government web resources and services.